sensor_id;sensor_type;location;lat;lon;timestamp;pressure;altitude;pressure_sealevel;temperature;humidity
9281;BME280;4679;47.966;7.958;2023-04-10T06:10:56;97534.13;;;3.83;66.94
9281;BME280;4679;47.966;7.958;2023-04-10T06:12:57;97535.75;;;3.84;66.94
9281;BME280;4679;47.966;7.958;2023-04-10T06:15:00;97528.75;;;3.91;66.67
9281;BME280;4679;47.966;7.958;2023-04-10T06:17:01;97533.84;;;3.99;66.50
9281;BME280;4679;47.966;7.958;2023-04-10T06:19:03;97533.16;;;4.12;66.64
9281;BME280;4679;47.966;7.958;2023-04-10T06:21:05;97534.41;;;4.22;66.52
9281;BME280;4679;47.966;7.958;2023-04-10T06:23:07;97534.44;;;4.29;66.33
9281;BME280;4679;47.966;7.958;2023-04-10T06:27:10;97524.84;;;4.49;65.98
9281;BME280;4679;47.966;7.958;2023-04-10T06:29:11;97524.47;;;4.59;65.87
9281;BME280;4679;47.966;7.958;2023-04-10T06:31:13;97530.41;;;4.68;65.72
9281;BME280;4679;47.966;7.958;2023-04-10T06:33:15;97524.16;;;4.75;65.70
9281;BME280;4679;47.966;7.958;2023-04-10T06:35:17;97529.63;;;4.80;65.51
9281;BME280;4679;47.966;7.958;2023-04-10T06:37:18;97517.72;;;4.91;65.65
9281;BME280;4679;47.966;7.958;2023-04-10T06:39:20;97519.19;;;5.00;65.53
9281;BME280;4679;47.966;7.958;2023-04-10T06:41:22;97527.50;;;5.10;65.26
9281;BME280;4679;47.966;7.958;2023-04-10T06:43:25;97523.91;;;5.24;65.55
9281;BME280;4679;47.966;7.958;2023-04-10T06:45:27;97523.09;;;5.37;65.54
9281;BME280;4679;47.966;7.958;2023-04-10T06:47:29;97533.25;;;5.47;65.41
9281;BME280;4679;47.966;7.958;2023-04-10T06:49:31;97527.38;;;5.58;64.88
9281;BME280;4679;47.966;7.958;2023-04-10T06:51:32;97522.53;;;5.68;64.36
9281;BME280;4679;47.966;7.958;2023-04-10T06:53:34;97525.78;;;5.77;64.71
9281;BME280;4679;47.966;7.958;2023-04-10T06:55:36;97512.84;;;5.88;64.95
9281;BME280;4679;47.966;7.958;2023-04-10T06:57:38;97505.72;;;6.02;64.59
9281;BME280;4679;47.966;7.958;2023-04-10T06:59:41;97502.06;;;6.16;64.60
9281;BME280;4679;47.966;7.958;2023-04-10T07:01:42;97506.47;;;6.29;64.42
9281;BME280;4679;47.966;7.958;2023-04-10T07:03:44;97502.16;;;6.48;63.68
9281;BME280;4679;47.966;7.958;2023-04-10T07:05:46;97500.09;;;6.63;63.66
9281;BME280;4679;47.966;7.958;2023-04-10T07:07:47;97498.00;;;6.78;62.70
9281;BME280;4679;47.966;7.958;2023-04-10T07:09:49;97502.59;;;6.89;63.17
9281;BME280;4679;47.966;7.958;2023-04-10T07:11:51;97499.53;;;6.99;62.42
9281;BME280;4679;47.966;7.958;2023-04-10T07:13:53;97502.91;;;7.13;62.75
9281;BME280;4679;47.966;7.958;2023-04-10T07:15:59;97510.31;;;7.29;62.50
9281;BME280;4679;47.966;7.958;2023-04-10T07:18:00;97507.16;;;7.45;62.61
9281;BME280;4679;47.966;7.958;2023-04-10T07:20:03;97505.16;;;7.65;61.85
9281;BME280;4679;47.966;7.958;2023-04-10T07:22:05;97506.91;;;7.78;61.44
9281;BME280;4679;47.966;7.958;2023-04-10T07:24:07;97496.22;;;7.91;61.68
9281;BME280;4679;47.966;7.958;2023-04-10T07:26:09;97502.22;;;8.05;61.57
9281;BME280;4679;47.966;7.958;2023-04-10T07:28:10;97504.28;;;8.21;61.33
9281;BME280;4679;47.966;7.958;2023-04-10T07:30:12;97506.81;;;8.34;60.78
9281;BME280;4679;47.966;7.958;2023-04-10T07:32:15;97506.09;;;8.45;60.84
9281;BME280;4679;47.966;7.958;2023-04-10T07:34:17;97496.47;;;8.51;60.99
9281;BME280;4679;47.966;7.958;2023-04-10T07:36:19;97503.44;;;8.64;60.21
9281;BME280;4679;47.966;7.958;2023-04-10T07:38:20;97501.97;;;8.68;60.48
9281;BME280;4679;47.966;7.958;2023-04-10T07:40:23;97501.66;;;8.76;60.50
9281;BME280;4679;47.966;7.958;2023-04-10T07:42:25;97502.53;;;8.88;60.31
9281;BME280;4679;47.966;7.958;2023-04-10T07:44:26;97502.81;;;8.98;59.90
9281;BME280;4679;47.966;7.958;2023-04-10T07:46:29;97494.69;;;9.11;59.89
9281;BME280;4679;47.966;7.958;2023-04-10T07:48:32;97502.00;;;9.28;59.75
9281;BME280;4679;47.966;7.958;2023-04-10T07:50:33;97504.31;;;9.36;59.59
9281;BME280;4679;47.966;7.958;2023-04-10T07:52:35;97502.75;;;9.46;59.45
9281;BME280;4679;47.966;7.958;2023-04-10T07:54:37;97506.47;;;9.57;59.48
9281;BME280;4679;47.966;7.958;2023-04-10T07:56:38;97503.47;;;9.65;59.27
9281;BME280;4679;47.966;7.958;2023-04-10T07:58:40;97500.38;;;9.68;59.29
9281;BME280;4679;47.966;7.958;2023-04-10T08:00:42;97503.03;;;9.80;59.17
9281;BME280;4679;47.966;7.958;2023-04-10T08:02:44;97506.53;;;9.92;58.59
9281;BME280;4679;47.966;7.958;2023-04-10T08:04:47;97505.56;;;10.10;58.07
9281;BME280;4679;47.966;7.958;2023-04-10T08:06:49;97499.59;;;10.14;58.37
9281;BME280;4679;47.966;7.958;2023-04-10T08:08:50;97502.03;;;10.28;57.62
9281;BME280;4679;47.966;7.958;2023-04-10T08:10:52;97501.13;;;10.34;57.03
9281;BME280;4679;47.966;7.958;2023-04-10T08:12:54;97493.38;;;10.44;56.81
9281;BME280;4679;47.966;7.958;2023-04-10T08:14:56;97489.88;;;10.67;56.76
9281;BME280;4679;47.966;7.958;2023-04-10T08:16:58;97483.03;;;10.71;56.90
9281;BME280;4679;47.966;7.958;2023-04-10T08:19:00;97493.31;;;10.79;56.28
9281;BME280;4679;47.966;7.958;2023-04-10T08:21:03;97485.28;;;10.90;56.10
9281;BME280;4679;47.966;7.958;2023-04-10T08:23:05;97483.91;;;11.00;55.96
9281;BME280;4679;47.966;7.958;2023-04-10T08:25:08;97476.69;;;11.12;56.75
9281;BME280;4679;47.966;7.958;2023-04-10T08:27:10;97488.63;;;11.26;56.95
9281;BME280;4679;47.966;7.958;2023-04-10T08:29:11;97493.41;;;11.41;55.42
9281;BME280;4679;47.966;7.958;2023-04-10T08:31:13;97483.03;;;11.56;55.49
9281;BME280;4679;47.966;7.958;2023-04-10T08:33:15;97489.06;;;11.68;54.99
9281;BME280;4679;47.966;7.958;2023-04-10T08:35:16;97487.25;;;11.85;54.40
9281;BME280;4679;47.966;7.958;2023-04-10T08:37:19;97489.00;;;11.96;55.03
9281;BME280;4679;47.966;7.958;2023-04-10T08:39:21;97486.25;;;12.08;54.50
9281;BME280;4679;47.966;7.958;2023-04-10T08:41:23;97486.47;;;12.23;54.49
9281;BME280;4679;47.966;7.958;2023-04-10T08:43:24;97482.69;;;12.36;54.26
9281;BME280;4679;47.966;7.958;2023-04-10T08:45:26;97496.19;;;12.51;53.90
9281;BME280;4679;47.966;7.958;2023-04-10T08:47:28;97478.25;;;12.63;53.84
9281;BME280;4679;47.966;7.958;2023-04-10T08:49:40;97475.13;;;12.72;53.62
9281;BME280;4679;47.966;7.958;2023-04-10T08:51:51;97472.81;;;13.02;53.31
9281;BME280;4679;47.966;7.958;2023-04-10T08:53:57;97476.34;;;13.08;53.04
9281;BME280;4679;47.966;7.958;2023-04-10T08:56:03;97473.66;;;13.29;52.56
9281;BME280;4679;47.966;7.958;2023-04-10T08:58:07;97473.53;;;13.41;52.59
9281;BME280;4679;47.966;7.958;2023-04-10T09:00:10;97472.25;;;13.49;52.08
9281;BME280;4679;47.966;7.958;2023-04-10T09:02:12;97470.75;;;13.58;51.80
9281;BME280;4679;47.966;7.958;2023-04-10T09:04:14;97477.13;;;13.57;51.59
9281;BME280;4679;47.966;7.958;2023-04-10T09:06:16;97470.88;;;13.73;51.70
9281;BME280;4679;47.966;7.958;2023-04-10T09:08:17;97473.91;;;13.87;51.73
9281;BME280;4679;47.966;7.958;2023-04-10T09:10:21;97472.00;;;13.82;51.63
9281;BME280;4679;47.966;7.958;2023-04-10T09:12:23;97473.59;;;13.83;51.54
9281;BME280;4679;47.966;7.958;2023-04-10T09:14:26;97470.00;;;13.99;51.36
9281;BME280;4679;47.966;7.958;2023-04-10T09:16:28;97467.72;;;14.23;51.32
9281;BME280;4679;47.966;7.958;2023-04-10T09:18:41;97465.72;;;14.40;50.74
9281;BME280;4679;47.966;7.958;2023-04-10T09:20:42;97461.25;;;14.56;50.45
9281;BME280;4679;47.966;7.958;2023-04-10T09:22:51;97454.91;;;14.67;50.09
9281;BME280;4679;47.966;7.958;2023-04-10T09:24:52;97455.25;;;14.81;49.38
9281;BME280;4679;47.966;7.958;2023-04-10T09:26:55;97455.50;;;14.85;49.49
9281;BME280;4679;47.966;7.958;2023-04-10T09:28:59;97451.53;;;14.92;49.71
9281;BME280;4679;47.966;7.958;2023-04-10T09:31:01;97449.09;;;14.86;49.60
9281;BME280;4679;47.966;7.958;2023-04-10T09:33:24;97445.88;;;14.78;49.58
9281;BME280;4679;47.966;7.958;2023-04-10T09:35:35;97437.06;;;14.78;49.28
9281;BME280;4679;47.966;7.958;2023-04-10T09:37:37;97429.84;;;14.78;49.45
9281;BME280;4679;47.966;7.958;2023-04-10T09:39:40;97425.91;;;14.96;49.27
9281;BME280;4679;47.966;7.958;2023-04-10T09:41:50;97435.53;;;15.18;48.89
9281;BME280;4679;47.966;7.958;2023-04-10T09:44:04;97429.94;;;15.19;48.60
9281;BME280;4679;47.966;7.958;2023-04-10T09:46:07;97433.44;;;15.40;48.41
9281;BME280;4679;47.966;7.958;2023-04-10T09:48:08;97428.88;;;15.25;47.71
9281;BME280;4679;47.966;7.958;2023-04-10T09:50:10;97432.63;;;15.39;48.10
9281;BME280;4679;47.966;7.958;2023-04-10T09:52:17;97429.72;;;15.61;47.30
9281;BME280;4679;47.966;7.958;2023-04-10T09:54:34;97433.97;;;15.52;47.68
9281;BME280;4679;47.966;7.958;2023-04-10T09:56:38;97426.50;;;15.59;46.87
9281;BME280;4679;47.966;7.958;2023-04-10T09:58:39;97427.31;;;15.65;47.35
9281;BME280;4679;47.966;7.958;2023-04-10T10:00:44;97427.59;;;15.83;46.80
9281;BME280;4679;47.966;7.958;2023-04-10T10:02:47;97416.31;;;15.92;46.33
9281;BME280;4679;47.966;7.958;2023-04-10T10:04:50;97414.91;;;16.30;45.92
9281;BME280;4679;47.966;7.958;2023-04-10T10:06:52;97408.38;;;16.61;45.42
9281;BME280;4679;47.966;7.958;2023-04-10T10:08:54;97409.13;;;16.77;45.34
9281;BME280;4679;47.966;7.958;2023-04-10T10:10:57;97406.47;;;16.72;45.46
9281;BME280;4679;47.966;7.958;2023-04-10T10:13:01;97410.47;;;16.79;45.22
9281;BME280;4679;47.966;7.958;2023-04-10T10:15:08;97406.50;;;16.57;45.79
9281;BME280;4679;47.966;7.958;2023-04-10T10:17:17;97399.84;;;16.49;45.83
9281;BME280;4679;47.966;7.958;2023-04-10T10:19:23;97390.38;;;16.72;46.02
9281;BME280;4679;47.966;7.958;2023-04-10T10:21:27;97388.69;;;16.91;45.02
9281;BME280;4679;47.966;7.958;2023-04-10T10:23:33;97377.16;;;16.91;45.19
9281;BME280;4679;47.966;7.958;2023-04-10T10:25:36;97382.72;;;16.99;45.13
9281;BME280;4679;47.966;7.958;2023-04-10T10:27:40;97393.13;;;17.06;44.97
9281;BME280;4679;47.966;7.958;2023-04-10T10:29:43;97384.28;;;17.05;44.77
9281;BME280;4679;47.966;7.958;2023-04-10T10:31:47;97385.91;;;17.06;44.79
9281;BME280;4679;47.966;7.958;2023-04-10T10:33:51;97379.88;;;17.25;44.65
9281;BME280;4679;47.966;7.958;2023-04-10T10:35:53;97383.25;;;17.40;44.23
9281;BME280;4679;47.966;7.958;2023-04-10T10:37:57;97383.16;;;17.50;44.34
9281;BME280;4679;47.966;7.958;2023-04-10T10:40:03;97383.28;;;17.69;44.03
9281;BME280;4679;47.966;7.958;2023-04-10T10:42:12;97378.09;;;17.78;43.75
9281;BME280;4679;47.966;7.958;2023-04-10T10:44:20;97375.94;;;17.80;43.26
9281;BME280;4679;47.966;7.958;2023-04-10T10:46:33;97381.34;;;17.75;43.70
9281;BME280;4679;47.966;7.958;2023-04-10T10:48:36;97374.88;;;17.76;43.37
9281;BME280;4679;47.966;7.958;2023-04-10T10:50:52;97370.19;;;17.91;43.27
9281;BME280;4679;47.966;7.958;2023-04-10T10:52:56;97375.44;;;18.25;42.72
9281;BME280;4679;47.966;7.958;2023-04-10T10:54:58;97369.03;;;18.45;42.46
9281;BME280;4679;47.966;7.958;2023-04-10T10:57:00;97367.69;;;18.48;42.33
9281;BME280;4679;47.966;7.958;2023-04-10T10:59:06;97365.09;;;18.38;42.47
9281;BME280;4679;47.966;7.958;2023-04-10T11:01:08;97369.31;;;18.20;42.50
9281;BME280;4679;47.966;7.958;2023-04-10T11:03:26;97361.03;;;17.92;42.81
9281;BME280;4679;47.966;7.958;2023-04-10T11:05:53;97363.69;;;17.69;42.90
9281;BME280;4679;47.966;7.958;2023-04-10T11:08:07;97359.56;;;17.47;43.24
9281;BME280;4679;47.966;7.958;2023-04-10T11:10:09;97362.28;;;17.42;43.31
9281;BME280;4679;47.966;7.958;2023-04-10T11:12:11;97362.25;;;17.47;43.18
9281;BME280;4679;47.966;7.958;2023-04-10T11:14:14;97367.56;;;17.52;43.17
9281;BME280;4679;47.966;7.958;2023-04-10T11:16:18;97357.56;;;17.92;42.74
9281;BME280;4679;47.966;7.958;2023-04-10T11:21:09;97353.94;;;17.78;42.81
9281;BME280;4679;47.966;7.958;2023-04-10T11:23:11;97353.41;;;17.76;42.39
9281;BME280;4679;47.966;7.958;2023-04-10T11:25:13;97353.13;;;17.77;42.85
9281;BME280;4679;47.966;7.958;2023-04-10T11:27:36;97363.75;;;18.16;42.32
9281;BME280;4679;47.966;7.958;2023-04-10T11:29:38;97360.41;;;18.24;42.20
9281;BME280;4679;47.966;7.958;2023-04-10T11:31:40;97352.63;;;18.47;42.00
9281;BME280;4679;47.966;7.958;2023-04-10T11:33:42;97353.44;;;18.47;41.62
9281;BME280;4679;47.966;7.958;2023-04-10T11:35:45;97350.91;;;18.56;41.91
9281;BME280;4679;47.966;7.958;2023-04-10T11:37:48;97347.66;;;18.59;42.16
9281;BME280;4679;47.966;7.958;2023-04-10T11:40:02;97347.94;;;18.34;41.95
9281;BME280;4679;47.966;7.958;2023-04-10T11:42:04;97348.13;;;18.18;42.31
9281;BME280;4679;47.966;7.958;2023-04-10T11:44:07;97341.56;;;18.06;42.37
9281;BME280;4679;47.966;7.958;2023-04-10T11:46:09;97343.63;;;18.14;42.13
9281;BME280;4679;47.966;7.958;2023-04-10T11:48:11;97343.88;;;18.17;42.00
9281;BME280;4679;47.966;7.958;2023-04-10T11:50:13;97346.13;;;18.29;42.24
9281;BME280;4679;47.966;7.958;2023-04-10T11:52:23;97345.16;;;18.20;42.07
9281;BME280;4679;47.966;7.958;2023-04-10T11:54:27;97355.69;;;18.16;42.07
9281;BME280;4679;47.966;7.958;2023-04-10T11:56:29;97349.78;;;18.38;41.98
9281;BME280;4679;47.966;7.958;2023-04-10T11:58:31;97354.63;;;18.36;41.93
9281;BME280;4679;47.966;7.958;2023-04-10T12:00:33;97359.75;;;18.14;42.04
9281;BME280;4679;47.966;7.958;2023-04-10T12:02:48;97353.66;;;18.03;42.41
9281;BME280;4679;47.966;7.958;2023-04-10T12:04:56;97355.59;;;17.74;43.00
9281;BME280;4679;47.966;7.958;2023-04-10T12:06:58;97356.88;;;17.81;42.73
9281;BME280;4679;47.966;7.958;2023-04-10T12:09:11;97357.78;;;17.72;42.40
9281;BME280;4679;47.966;7.958;2023-04-10T12:11:16;97354.59;;;17.65;42.85
9281;BME280;4679;47.966;7.958;2023-04-10T12:13:23;97347.72;;;17.53;42.94
9281;BME280;4679;47.966;7.958;2023-04-10T12:15:26;97346.03;;;17.57;42.81
9281;BME280;4679;47.966;7.958;2023-04-10T12:17:28;97336.00;;;17.73;42.51
9281;BME280;4679;47.966;7.958;2023-04-10T12:19:31;97337.03;;;17.77;42.51
9281;BME280;4679;47.966;7.958;2023-04-10T12:21:34;97324.53;;;17.68;42.56
9281;BME280;4679;47.966;7.958;2023-04-10T12:23:37;97325.25;;;17.44;42.84
9281;BME280;4679;47.966;7.958;2023-04-10T12:27:47;97316.47;;;17.68;42.94
9281;BME280;4679;47.966;7.958;2023-04-10T12:29:50;97329.22;;;17.81;42.28
9281;BME280;4679;47.966;7.958;2023-04-10T12:31:52;97321.59;;;17.88;42.44
9281;BME280;4679;47.966;7.958;2023-04-10T12:33:54;97328.78;;;17.98;42.37
9281;BME280;4679;47.966;7.958;2023-04-10T12:35:57;97325.69;;;17.85;42.22
9281;BME280;4679;47.966;7.958;2023-04-10T12:37:59;97320.88;;;17.82;42.36
9281;BME280;4679;47.966;7.958;2023-04-10T12:40:05;97315.13;;;17.70;42.41
9281;BME280;4679;47.966;7.958;2023-04-10T12:42:10;97319.44;;;17.61;42.59
9281;BME280;4679;47.966;7.958;2023-04-10T12:44:14;97322.88;;;17.72;42.57
9281;BME280;4679;47.966;7.958;2023-04-10T12:46:23;97313.22;;;17.71;42.51
9281;BME280;4679;47.966;7.958;2023-04-10T12:48:25;97320.19;;;17.72;42.75
9281;BME280;4679;47.966;7.958;2023-04-10T12:50:26;97313.28;;;17.66;42.51
9281;BME280;4679;47.966;7.958;2023-04-10T12:52:28;97318.06;;;17.69;42.88
9281;BME280;4679;47.966;7.958;2023-04-10T12:54:31;97308.31;;;17.78;42.18
9281;BME280;4679;47.966;7.958;2023-04-10T12:56:40;97311.72;;;18.07;42.29
9281;BME280;4679;47.966;7.958;2023-04-10T12:58:41;97325.16;;;18.07;41.92
9281;BME280;4679;47.966;7.958;2023-04-10T13:00:45;97315.72;;;18.10;42.20
9281;BME280;4679;47.966;7.958;2023-04-10T13:02:47;97317.22;;;18.21;41.84
9281;BME280;4679;47.966;7.958;2023-04-10T13:04:49;97319.88;;;18.21;41.78
9281;BME280;4679;47.966;7.958;2023-04-10T13:06:51;97311.44;;;18.33;41.94
9281;BME280;4679;47.966;7.958;2023-04-10T13:08:53;97296.06;;;18.57;41.52
9281;BME280;4679;47.966;7.958;2023-04-10T13:10:55;97300.44;;;18.72;41.38
9281;BME280;4679;47.966;7.958;2023-04-10T13:13:02;97291.63;;;18.66;41.50
9281;BME280;4679;47.966;7.958;2023-04-10T13:15:04;97292.66;;;18.70;41.66
9281;BME280;4679;47.966;7.958;2023-04-10T13:17:08;97302.91;;;18.68;41.61
9281;BME280;4679;47.966;7.958;2023-04-10T13:19:09;97298.56;;;18.72;41.44
9281;BME280;4679;47.966;7.958;2023-04-10T13:21:12;97297.47;;;18.73;41.66
9281;BME280;4679;47.966;7.958;2023-04-10T13:23:17;97295.72;;;18.82;41.43
9281;BME280;4679;47.966;7.958;2023-04-10T13:25:19;97289.44;;;19.06;41.34
9281;BME280;4679;47.966;7.958;2023-04-10T13:27:22;97291.56;;;19.09;41.33
9281;BME280;4679;47.966;7.958;2023-04-10T13:29:23;97285.28;;;19.13;41.29
9281;BME280;4679;47.966;7.958;2023-04-10T13:31:25;97289.56;;;19.14;41.06
9281;BME280;4679;47.966;7.958;2023-04-10T13:33:28;97288.00;;;19.27;41.10
9281;BME280;4679;47.966;7.958;2023-04-10T13:35:30;97279.13;;;19.26;41.19
9281;BME280;4679;47.966;7.958;2023-04-10T13:37:32;97282.91;;;19.25;41.10
9281;BME280;4679;47.966;7.958;2023-04-10T13:39:34;97277.78;;;19.43;40.86
9281;BME280;4679;47.966;7.958;2023-04-10T13:41:35;97267.28;;;19.27;41.05
9281;BME280;4679;47.966;7.958;2023-04-10T13:43:37;97269.47;;;18.93;41.12
9281;BME280;4679;47.966;7.958;2023-04-10T13:45:40;97264.09;;;18.93;41.13
9281;BME280;4679;47.966;7.958;2023-04-10T13:47:42;97262.94;;;19.13;40.99
9281;BME280;4679;47.966;7.958;2023-04-10T13:49:45;97260.75;;;19.15;40.66
9281;BME280;4679;47.966;7.958;2023-04-10T13:51:47;97260.25;;;19.13;40.62
9281;BME280;4679;47.966;7.958;2023-04-10T13:53:48;97249.13;;;19.19;40.53
9281;BME280;4679;47.966;7.958;2023-04-10T13:55:50;97247.19;;;19.06;40.65
9281;BME280;4679;47.966;7.958;2023-04-10T13:57:52;97253.91;;;19.09;40.43
9281;BME280;4679;47.966;7.958;2023-04-10T13:59:53;97236.63;;;19.10;40.33
9281;BME280;4679;47.966;7.958;2023-04-10T14:01:55;97239.03;;;19.11;40.10
9281;BME280;4679;47.966;7.958;2023-04-10T14:03:57;97245.91;;;19.04;40.13
9281;BME280;4679;47.966;7.958;2023-04-10T14:06:00;97236.63;;;19.10;39.74
9281;BME280;4679;47.966;7.958;2023-04-10T14:08:01;97239.97;;;19.20;39.67
9281;BME280;4679;47.966;7.958;2023-04-10T14:10:03;97237.97;;;19.26;39.25
9281;BME280;4679;47.966;7.958;2023-04-10T14:12:05;97236.50;;;19.33;38.96
9281;BME280;4679;47.966;7.958;2023-04-10T14:14:07;97233.34;;;19.13;38.83
9281;BME280;4679;47.966;7.958;2023-04-10T14:16:09;97231.50;;;18.94;38.82
9281;BME280;4679;47.966;7.958;2023-04-10T14:18:11;97229.47;;;19.05;38.62
9281;BME280;4679;47.966;7.958;2023-04-10T14:20:14;97226.09;;;19.13;38.17
9281;BME280;4679;47.966;7.958;2023-04-10T14:22:17;97229.19;;;19.07;38.10
9281;BME280;4679;47.966;7.958;2023-04-10T14:24:18;97230.94;;;18.97;37.76
9281;BME280;4679;47.966;7.958;2023-04-10T14:26:20;97232.13;;;18.91;37.95
9281;BME280;4679;47.966;7.958;2023-04-10T14:28:22;97226.53;;;18.88;37.98
9281;BME280;4679;47.966;7.958;2023-04-10T14:30:24;97230.75;;;18.94;38.06
9281;BME280;4679;47.966;7.958;2023-04-10T14:32:29;97228.13;;;18.89;37.77
9281;BME280;4679;47.966;7.958;2023-04-10T14:34:31;97223.22;;;18.77;37.94
9281;BME280;4679;47.966;7.958;2023-04-10T14:36:33;97222.78;;;18.70;37.85
9281;BME280;4679;47.966;7.958;2023-04-10T14:38:36;97214.59;;;18.61;37.88
9281;BME280;4679;47.966;7.958;2023-04-10T14:40:38;97217.31;;;18.56;37.98
9281;BME280;4679;47.966;7.958;2023-04-10T14:42:40;97227.03;;;18.52;38.16
9281;BME280;4679;47.966;7.958;2023-04-10T14:44:41;97219.25;;;18.51;38.26
9281;BME280;4679;47.966;7.958;2023-04-10T14:46:43;97219.56;;;18.49;38.41
9281;BME280;4679;47.966;7.958;2023-04-10T14:48:45;97214.84;;;18.41;38.53
9281;BME280;4679;47.966;7.958;2023-04-10T14:50:47;97220.50;;;18.40;38.59
9281;BME280;4679;47.966;7.958;2023-04-10T14:52:49;97216.69;;;18.46;38.60
9281;BME280;4679;47.966;7.958;2023-04-10T14:54:52;97219.50;;;18.54;38.65
9281;BME280;4679;47.966;7.958;2023-04-10T14:56:54;97213.53;;;18.57;38.64
9281;BME280;4679;47.966;7.958;2023-04-10T14:58:56;97210.50;;;18.64;38.68
9281;BME280;4679;47.966;7.958;2023-04-10T15:00:58;97207.03;;;18.64;38.95
9281;BME280;4679;47.966;7.958;2023-04-10T15:02:59;97206.66;;;18.70;38.97
9281;BME280;4679;47.966;7.958;2023-04-10T15:05:01;97201.16;;;18.61;38.96
9281;BME280;4679;47.966;7.958;2023-04-10T15:07:03;97196.88;;;18.60;39.19
9281;BME280;4679;47.966;7.958;2023-04-10T15:09:04;97189.00;;;18.64;39.34
9281;BME280;4679;47.966;7.958;2023-04-10T15:11:07;97184.72;;;18.63;38.96
9281;BME280;4679;47.966;7.958;2023-04-10T15:13:09;97186.44;;;18.54;39.69
9281;BME280;4679;47.966;7.958;2023-04-10T15:15:11;97184.84;;;18.53;39.70
9281;BME280;4679;47.966;7.958;2023-04-10T15:17:12;97183.41;;;18.42;40.01
9281;BME280;4679;47.966;7.958;2023-04-10T15:19:14;97177.53;;;18.40;39.97
9281;BME280;4679;47.966;7.958;2023-04-10T15:21:16;97171.28;;;18.44;40.23
9281;BME280;4679;47.966;7.958;2023-04-10T15:23:17;97175.63;;;18.40;40.30
9281;BME280;4679;47.966;7.958;2023-04-10T15:25:19;97164.47;;;18.33;40.37
9281;BME280;4679;47.966;7.958;2023-04-10T15:27:22;97176.38;;;18.27;40.41
9281;BME280;4679;47.966;7.958;2023-04-10T15:29:24;97167.28;;;18.23;40.30
9281;BME280;4679;47.966;7.958;2023-04-10T15:31:25;97165.13;;;18.25;40.42
9281;BME280;4679;47.966;7.958;2023-04-10T15:33:27;97161.63;;;18.24;40.38
9281;BME280;4679;47.966;7.958;2023-04-10T15:35:29;97159.69;;;18.11;41.12
9281;BME280;4679;47.966;7.958;2023-04-10T15:37:35;97156.69;;;17.94;40.76
9281;BME280;4679;47.966;7.958;2023-04-10T15:39:37;97159.91;;;17.96;40.88
9281;BME280;4679;47.966;7.958;2023-04-10T15:41:39;97156.69;;;17.94;41.12
9281;BME280;4679;47.966;7.958;2023-04-10T15:43:41;97158.44;;;17.85;41.44
9281;BME280;4679;47.966;7.958;2023-04-10T15:45:43;97159.66;;;17.74;41.23
9281;BME280;4679;47.966;7.958;2023-04-10T15:47:46;97149.00;;;17.69;41.50
9281;BME280;4679;47.966;7.958;2023-04-10T15:49:48;97148.75;;;17.65;41.51
9281;BME280;4679;47.966;7.958;2023-04-10T15:51:50;97141.50;;;17.66;41.92
9281;BME280;4679;47.966;7.958;2023-04-10T15:53:53;97142.59;;;17.65;41.45
9281;BME280;4679;47.966;7.958;2023-04-10T15:55:55;97150.16;;;17.57;41.98
9281;BME280;4679;47.966;7.958;2023-04-10T15:57:56;97146.53;;;17.48;42.21
9281;BME280;4679;47.966;7.958;2023-04-10T15:59:59;97137.16;;;17.46;41.94
9281;BME280;4679;47.966;7.958;2023-04-10T16:02:01;97144.13;;;17.47;42.05
9281;BME280;4679;47.966;7.958;2023-04-10T16:04:03;97143.03;;;17.48;42.36
9281;BME280;4679;47.966;7.958;2023-04-10T16:06:05;97136.34;;;17.45;42.04
9281;BME280;4679;47.966;7.958;2023-04-10T16:08:07;97133.69;;;17.45;42.28
9281;BME280;4679;47.966;7.958;2023-04-10T16:10:09;97129.34;;;17.49;42.24
9281;BME280;4679;47.966;7.958;2023-04-10T16:12:11;97127.50;;;17.45;42.88
9281;BME280;4679;47.966;7.958;2023-04-10T16:14:13;97128.03;;;17.47;42.33
9281;BME280;4679;47.966;7.958;2023-04-10T16:16:16;97120.53;;;17.44;42.34
9281;BME280;4679;47.966;7.958;2023-04-10T16:18:18;97123.50;;;17.42;43.10
9281;BME280;4679;47.966;7.958;2023-04-10T16:20:20;97122.00;;;17.36;42.84
9281;BME280;4679;47.966;7.958;2023-04-10T16:22:21;97119.53;;;17.40;43.14
9281;BME280;4679;47.966;7.958;2023-04-10T16:24:24;97120.34;;;17.40;42.58
9281;BME280;4679;47.966;7.958;2023-04-10T16:26:26;97127.63;;;17.35;43.40
9281;BME280;4679;47.966;7.958;2023-04-10T16:28:27;97129.47;;;17.39;43.24
9281;BME280;4679;47.966;7.958;2023-04-10T16:30:29;97131.94;;;17.36;43.46
9281;BME280;4679;47.966;7.958;2023-04-10T16:32:33;97138.50;;;17.25;43.38
9281;BME280;4679;47.966;7.958;2023-04-10T16:34:35;97145.00;;;17.18;43.29
9281;BME280;4679;47.966;7.958;2023-04-10T16:36:36;97130.22;;;17.21;43.93
9281;BME280;4679;47.966;7.958;2023-04-10T16:38:38;97131.75;;;17.27;43.67
9281;BME280;4679;47.966;7.958;2023-04-10T16:40:40;97127.41;;;17.31;43.56
9281;BME280;4679;47.966;7.958;2023-04-10T16:42:41;97123.78;;;17.22;44.34
9281;BME280;4679;47.966;7.958;2023-04-10T16:44:43;97116.34;;;17.14;43.65
9281;BME280;4679;47.966;7.958;2023-04-10T16:46:45;97119.38;;;17.07;44.49
9281;BME280;4679;47.966;7.958;2023-04-10T16:48:48;97117.53;;;17.03;44.43
9281;BME280;4679;47.966;7.958;2023-04-10T16:50:51;97124.81;;;16.97;44.81
9281;BME280;4679;47.966;7.958;2023-04-10T16:52:53;97117.59;;;16.98;44.63
9281;BME280;4679;47.966;7.958;2023-04-10T16:54:54;97121.34;;;16.97;44.61
9281;BME280;4679;47.966;7.958;2023-04-10T16:56:56;97123.53;;;16.95;45.09
9281;BME280;4679;47.966;7.958;2023-04-10T16:58:57;97127.81;;;16.96;44.44
9281;BME280;4679;47.966;7.958;2023-04-10T17:00:59;97127.03;;;16.95;45.06
9281;BME280;4679;47.966;7.958;2023-04-10T17:03:01;97135.06;;;16.95;45.14
9281;BME280;4679;47.966;7.958;2023-04-10T17:05:04;97131.59;;;16.95;45.07
9281;BME280;4679;47.966;7.958;2023-04-10T17:07:06;97131.09;;;16.87;44.84
9281;BME280;4679;47.966;7.958;2023-04-10T17:09:08;97124.69;;;16.83;45.25
9281;BME280;4679;47.966;7.958;2023-04-10T17:11:10;97126.59;;;16.83;45.24
9281;BME280;4679;47.966;7.958;2023-04-10T17:13:12;97117.53;;;16.79;45.37
9281;BME280;4679;47.966;7.958;2023-04-10T17:15:14;97112.50;;;16.72;45.18
9281;BME280;4679;47.966;7.958;2023-04-10T17:17:16;97109.00;;;16.72;45.05
9281;BME280;4679;47.966;7.958;2023-04-10T17:19:18;97110.88;;;16.71;44.88
9281;BME280;4679;47.966;7.958;2023-04-10T17:21:21;97116.53;;;16.70;45.27
9281;BME280;4679;47.966;7.958;2023-04-10T17:23:23;97118.69;;;16.68;45.01
9281;BME280;4679;47.966;7.958;2023-04-10T17:25:24;97112.31;;;16.64;45.06
9281;BME280;4679;47.966;7.958;2023-04-10T17:27:26;97113.13;;;16.59;45.10
9281;BME280;4679;47.966;7.958;2023-04-10T17:29:27;97120.38;;;16.59;45.71